Time;durP1;ratioP1;P1;durP2;ratioP2;P2;SDS_P1;SDS_P2;PMS_P1;PMS_P2;Temp;Humidity;BMP_temperature;BMP_pressure;BME280_temperature;BME280_humidity;BME280_pressure;Samples;Min_cycle;Max_cycle;Signal;HPM_P1;HPM_P2
2023/12/18 00:01:10;;;;;;;9.90;4.40;;;;;;;;;;104372;1288;545987;-71
2023/12/18 00:04:47;;;;;;;11.10;4.60;;;;;;;;;;103908;1289;544839;-70
2023/12/18 00:08:24;;;;;;;12.60;5.20;;;;;;;;;;104211;1286;545529;-72
2023/12/18 00:12:02;;;;;;;11.10;5.30;;;;;;;;;;103814;1292;545036;-71
2023/12/18 00:15:40;;;;;;;10.10;4.90;;;;;;;;;;103807;1290;545211;-71
2023/12/18 00:19:37;;;;;;;11.00;5.90;;;;;;;;;;103855;1293;545427;-72
2023/12/18 00:22:55;;;;;;;12.00;6.00;;;;;;;;;;104214;1289;544746;-71
2023/12/18 00:26:32;;;;;;;11.30;5.40;;;;;;;;;;103853;1289;544912;-71
2023/12/18 00:30:10;;;;;;;12.80;5.70;;;;;;;;;;103860;1290;545024;-72
2023/12/18 00:33:47;;;;;;;11.50;5.50;;;;;;;;;;103925;1289;544781;-73
2023/12/18 00:37:22;;;;;;;11.40;5.60;;;;;;;;;;104652;1282;544938;-74
2023/12/18 00:41:02;;;;;;;11.70;6.40;;;;;;;;;;103891;1295;546225;-72
2023/12/18 00:44:39;;;;;;;12.10;5.70;;;;;;;;;;104643;1283;545627;-72
2023/12/18 00:48:17;;;;;;;11.80;5.30;;;;;;;;;;103946;1289;544994;-72
2023/12/18 00:51:55;;;;;;;10.10;5.60;;;;;;;;;;103852;1289;545124;-72
2023/12/18 00:55:51;;;;;;;12.50;6.30;;;;;;;;;;103777;1292;548869;-77
2023/12/18 00:59:09;;;;;;;11.50;6.20;;;;;;;;;;103905;1289;545119;-71
2023/12/18 01:02:47;;;;;;;11.30;5.90;;;;;;;;;;103826;1295;545531;-71
2023/12/18 01:06:44;;;;;;;11.10;5.90;;;;;;;;;;103801;1289;545392;-76
2023/12/18 01:10:02;;;;;;;13.10;6.30;;;;;;;;;;103923;1291;545622;-71
2023/12/18 01:13:40;;;;;;;11.60;6.70;;;;;;;;;;103787;1291;545640;-70
2023/12/18 01:17:17;;;;;;;10.40;6.10;;;;;;;;;;104196;1288;545142;-71
2023/12/18 01:20:50;;;;;;;11.50;6.60;;;;;;;;;;103932;1292;545081;-72
2023/12/18 01:24:31;;;;;;;11.30;6.40;;;;;;;;;;103785;1291;544975;-76
2023/12/18 01:28:09;;;;;;;13.00;7.40;;;;;;;;;;103966;1288;546333;-72
2023/12/18 01:31:46;;;;;;;13.80;7.00;;;;;;;;;;103968;1292;545263;-72
2023/12/18 01:35:23;;;;;;;13.70;7.50;;;;;;;;;;103824;1289;546504;-71
2023/12/18 01:39:01;;;;;;;13.00;6.80;;;;;;;;;;104134;1286;544917;-72
2023/12/18 01:42:42;;;;;;;14.00;7.00;;;;;;;;;;103822;1291;545211;-72
2023/12/18 01:46:19;;;;;;;13.20;7.20;;;;;;;;;;103875;1289;545009;-70
2023/12/18 01:49:54;;;;;;;11.20;7.00;;;;;;;;;;103764;1291;545586;-73
2023/12/18 01:53:32;;;;;;;13.30;7.60;;;;;;;;;;104507;1283;544837;-72
2023/12/18 01:57:10;;;;;;;13.30;7.90;;;;;;;;;;103898;1289;544854;-72
2023/12/18 02:00:47;;;;;;;16.30;9.20;;;;;;;;;;103880;1289;544790;-71
2023/12/18 02:04:21;;;;;;;15.50;9.00;;;;;;;;;;103930;1292;544845;-74
2023/12/18 02:08:02;;;;;;;16.00;9.20;;;;;;;;;;103945;1289;544788;-72
2023/12/18 02:11:42;;;;;;;15.10;9.20;;;;;;;;;;103818;1295;545002;-72
2023/12/18 02:15:16;;;;;;;15.30;10.00;;;;;;;;;;104004;1292;545687;-72
2023/12/18 02:18:54;;;;;;;14.70;8.80;;;;;;;;;;103844;1289;545104;-70
2023/12/18 02:22:46;;;;;;;14.20;8.60;;;;;;;;;;103893;1289;544997;-72
2023/12/18 02:26:08;;;;;;;14.10;8.90;;;;;;;;;;103878;1294;544761;-72
2023/12/18 02:29:46;;;;;;;16.20;9.70;;;;;;;;;;103910;1289;544950;-73
2023/12/18 02:33:23;;;;;;;16.60;9.30;;;;;;;;;;103834;1289;545063;-73
2023/12/18 02:37:00;;;;;;;17.30;9.90;;;;;;;;;;104408;1283;544799;-71
2023/12/18 02:40:40;;;;;;;16.40;9.90;;;;;;;;;;103905;1289;544892;-71
2023/12/18 02:44:15;;;;;;;14.60;9.30;;;;;;;;;;104631;1283;544759;-72
2023/12/18 02:47:49;;;;;;;16.20;9.10;;;;;;;;;;103962;1292;545240;-75
2023/12/18 02:51:31;;;;;;;14.60;9.00;;;;;;;;;;103843;1290;544797;-77
2023/12/18 02:55:11;;;;;;;13.40;8.90;;;;;;;;;;103847;1291;545478;-72
2023/12/18 02:58:45;;;;;;;15.30;9.60;;;;;;;;;;103846;1289;545698;-73
2023/12/18 03:02:23;;;;;;;16.30;9.90;;;;;;;;;;103830;1291;544790;-71
2023/12/18 03:05:56;;;;;;;15.30;9.30;;;;;;;;;;103924;1290;545078;-71
2023/12/18 03:09:38;;;;;;;15.60;9.90;;;;;;;;;;103924;1289;544946;-76
2023/12/18 03:13:15;;;;;;;16.20;9.50;;;;;;;;;;103874;1289;545724;-75
2023/12/18 03:16:53;;;;;;;16.20;9.40;;;;;;;;;;103841;1289;545118;-71
2023/12/18 03:20:30;;;;;;;15.10;9.20;;;;;;;;;;103829;1295;545321;-74
2023/12/18 03:24:07;;;;;;;15.10;9.30;;;;;;;;;;103772;1295;544984;-72
2023/12/18 03:27:45;;;;;;;13.60;8.10;;;;;;;;;;103826;1289;545090;-74
2023/12/18 03:31:19;;;;;;;16.80;8.70;;;;;;;;;;104104;1292;544856;-73
2023/12/18 03:35:00;;;;;;;13.60;8.80;;;;;;;;;;103785;1291;545673;-72
2023/12/18 03:38:37;;;;;;;14.60;8.40;;;;;;;;;;103903;1296;546481;-72
2023/12/18 03:42:15;;;;;;;15.00;9.00;;;;;;;;;;103910;1292;545644;-71
2023/12/18 03:45:52;;;;;;;14.60;9.00;;;;;;;;;;103726;1289;544992;-72
2023/12/18 03:49:30;;;;;;;15.00;8.70;;;;;;;;;;103925;1295;545437;-70
2023/12/18 03:53:08;;;;;;;16.30;9.20;;;;;;;;;;103800;1292;545097;-71
2023/12/18 03:56:45;;;;;;;14.70;8.60;;;;;;;;;;104077;1289;544681;-71
2023/12/18 04:00:23;;;;;;;16.10;9.40;;;;;;;;;;104206;1285;545516;-79
2023/12/18 04:04:00;;;;;;;14.50;8.70;;;;;;;;;;104063;1300;544948;-75
2023/12/18 04:07:38;;;;;;;13.90;8.80;;;;;;;;;;104006;1292;544942;-72
2023/12/18 04:11:15;;;;;;;14.80;9.40;;;;;;;;;;103968;1292;545425;-71
2023/12/18 04:14:51;;;;;;;13.90;8.20;;;;;;;;;;104221;1290;545471;-72
2023/12/18 04:18:31;;;;;;;12.60;7.40;;;;;;;;;;103795;1292;544818;-71
2023/12/18 04:22:09;;;;;;;13.80;8.10;;;;;;;;;;103933;1291;545412;-70
2023/12/18 04:25:42;;;;;;;14.50;9.00;;;;;;;;;;104112;1292;544937;-70
2023/12/18 04:29:24;;;;;;;13.10;8.50;;;;;;;;;;103918;1289;545089;-73
2023/12/18 04:33:01;;;;;;;13.70;8.70;;;;;;;;;;103792;1292;546433;-78
2023/12/18 04:36:38;;;;;;;13.20;8.30;;;;;;;;;;103763;1292;545138;-73
2023/12/18 04:40:16;;;;;;;14.40;8.60;;;;;;;;;;103928;1293;544829;-78
2023/12/18 04:43:53;;;;;;;14.30;9.40;;;;;;;;;;103875;1295;544876;-75
2023/12/18 04:47:27;;;;;;;15.00;9.80;;;;;;;;;;104005;1289;544764;-79
2023/12/18 04:51:10;;;;;;;16.20;10.20;;;;;;;;;;103743;1291;545074;-71
2023/12/18 04:54:48;;;;;;;15.10;9.90;;;;;;;;;;103945;1289;545522;-72
2023/12/18 04:58:25;;;;;;;16.40;10.20;;;;;;;;;;103782;1293;545007;-71
2023/12/18 05:02:02;;;;;;;14.70;9.60;;;;;;;;;;103814;1292;545242;-71
2023/12/18 05:05:40;;;;;;;15.50;10.00;;;;;;;;;;103850;1289;544868;-71
2023/12/18 05:09:18;;;;;;;14.10;9.40;;;;;;;;;;103893;1289;544832;-75
2023/12/18 05:12:55;;;;;;;16.00;9.80;;;;;;;;;;104571;1283;545948;-75
2023/12/18 05:16:32;;;;;;;15.10;10.10;;;;;;;;;;103813;1293;544935;-71
2023/12/18 05:20:08;;;;;;;14.50;9.40;;;;;;;;;;103976;1289;544944;-78
2023/12/18 05:23:50;;;;;;;14.30;9.20;;;;;;;;;;103859;1293;545855;-71
2023/12/18 05:27:26;;;;;;;14.10;8.90;;;;;;;;;;103764;1292;545870;-70
2023/12/18 05:31:04;;;;;;;13.60;8.80;;;;;;;;;;103978;1289;544734;-75
2023/12/18 05:34:41;;;;;;;13.70;9.30;;;;;;;;;;104443;1286;545460;-72
2023/12/18 05:38:19;;;;;;;14.80;9.10;;;;;;;;;;103824;1293;545565;-73
2023/12/18 05:41:56;;;;;;;14.00;8.40;;;;;;;;;;103708;1291;545333;-70
2023/12/18 05:45:34;;;;;;;12.50;8.10;;;;;;;;;;103711;1298;544837;-72
2023/12/18 05:49:11;;;;;;;14.80;9.60;;;;;;;;;;103969;1291;544796;-71
2023/12/18 05:52:48;;;;;;;15.80;10.00;;;;;;;;;;103909;1294;545505;-74
2023/12/18 05:56:26;;;;;;;15.60;9.20;;;;;;;;;;103666;1294;545291;-72
2023/12/18 06:00:06;;;;;;;16.00;10.00;;;;;;;;;;103780;1291;545150;-71
2023/12/18 06:03:40;;;;;;;20.50;10.80;;;;;;;;;;103747;1295;544873;-78
2023/12/18 06:07:18;;;;;;;24.10;14.30;;;;;;;;;;103819;1291;545104;-71
2023/12/18 06:11:01;;;;;;;19.40;10.70;;;;;;;;;;103654;1289;545738;-71
2023/12/18 06:14:33;;;;;;;16.50;10.10;;;;;;;;;;103818;1295;545550;-76
2023/12/18 06:18:11;;;;;;;16.20;10.00;;;;;;;;;;103808;1291;545152;-71
2023/12/18 06:21:48;;;;;;;16.30;10.50;;;;;;;;;;103747;1292;544992;-73
2023/12/18 06:25:25;;;;;;;19.60;12.20;;;;;;;;;;103886;1290;545531;-71
2023/12/18 06:29:03;;;;;;;15.90;9.70;;;;;;;;;;103823;1292;545266;-75
2023/12/18 06:32:41;;;;;;;16.60;9.30;;;;;;;;;;103792;1295;545002;-70
2023/12/18 06:36:19;;;;;;;16.50;11.30;;;;;;;;;;103754;1292;546681;-72
2023/12/18 06:39:56;;;;;;;18.00;11.50;;;;;;;;;;103834;1293;544997;-73
2023/12/18 06:43:32;;;;;;;15.70;10.50;;;;;;;;;;103778;1304;545033;-71
2023/12/18 06:47:06;;;;;;;16.90;10.80;;;;;;;;;;104094;1289;545361;-72
2023/12/18 07:44:19;;;;;;;21.00;13.00;;;;;;;;;;107630;1280;544985;-69
2023/12/18 07:47:18;;;;;;;20.50;12.60;;;;;;;;;;103562;1292;545653;-66
2023/12/18 07:50:52;;;;;;;20.10;12.80;;;;;;;;;;103734;1289;545133;-66
2023/12/18 07:54:34;;;;;;;17.00;10.00;;;;;;;;;;103611;1289;544742;-67
2023/12/18 07:58:11;;;;;;;14.80;9.50;;;;;;;;;;104465;1285;546035;-67
2023/12/18 08:01:48;;;;;;;15.00;9.00;;;;;;;;;;103656;1295;545221;-68
2023/12/18 08:05:25;;;;;;;16.90;9.10;;;;;;;;;;103768;1289;545453;-70
2023/12/18 08:09:03;;;;;;;14.40;8.40;;;;;;;;;;103730;1295;546221;-74
2023/12/18 08:12:41;;;;;;;15.70;8.30;;;;;;;;;;103544;1289;545245;-73
2023/12/18 08:16:18;;;;;;;16.50;9.00;;;;;;;;;;103568;1292;545772;-69
2023/12/18 08:19:55;;;;;;;17.20;9.30;;;;;;;;;;103501;1289;544767;-70
2023/12/18 08:23:33;;;;;;;15.40;8.60;;;;;;;;;;103564;1291;544873;-67
2023/12/18 08:27:10;;;;;;;15.60;8.90;;;;;;;;;;103616;1289;544939;-69
2023/12/18 08:30:48;;;;;;;13.50;8.10;;;;;;;;;;104139;1285;544804;-68
2023/12/18 08:34:25;;;;;;;20.20;12.90;;;;;;;;;;103513;1294;544838;-67
2023/12/18 08:38:03;;;;;;;19.20;11.90;;;;;;;;;;103563;1291;544966;-67
2023/12/18 08:41:42;;;;;;;19.40;11.00;;;;;;;;;;103514;1292;544939;-71
2023/12/18 08:45:17;;;;;;;15.50;9.70;;;;;;;;;;103705;1289;544707;-68
2023/12/18 08:48:51;;;;;;;15.90;9.50;;;;;;;;;;103880;1300;545209;-69
2023/12/18 08:52:32;;;;;;;16.80;10.00;;;;;;;;;;103600;1291;545023;-72
2023/12/18 08:56:10;;;;;;;16.70;10.30;;;;;;;;;;103642;1289;545699;-67
2023/12/18 08:59:51;;;;;;;14.80;9.00;;;;;;;;;;103641;1292;545050;-67
2023/12/18 09:03:25;;;;;;;18.80;9.90;;;;;;;;;;103743;1290;544782;-69
2023/12/18 09:07:03;;;;;;;16.00;9.30;;;;;;;;;;103670;1289;544916;-68
2023/12/18 09:10:40;;;;;;;15.80;9.10;;;;;;;;;;103709;1291;544796;-67
2023/12/18 09:14:18;;;;;;;18.00;8.90;;;;;;;;;;103682;1290;545689;-71
2023/12/18 09:17:55;;;;;;;14.90;7.70;;;;;;;;;;103731;1289;544912;-68
2023/12/18 09:21:32;;;;;;;13.00;6.90;;;;;;;;;;103713;1295;544978;-71
2023/12/18 09:25:10;;;;;;;11.90;5.20;;;;;;;;;;103660;1292;545608;-74
2023/12/18 09:28:47;;;;;;;11.70;4.80;;;;;;;;;;103456;1295;544795;-67
2023/12/18 09:32:25;;;;;;;11.50;5.10;;;;;;;;;;103719;1289;545915;-72
2023/12/18 09:36:03;;;;;;;8.50;3.00;;;;;;;;;;103536;1291;545459;-75
2023/12/18 09:39:40;;;;;;;6.10;2.50;;;;;;;;;;103738;1289;544986;-68
2023/12/18 09:43:18;;;;;;;9.00;3.50;;;;;;;;;;103491;1291;545004;-68
2023/12/18 09:46:54;;;;;;;13.70;5.50;;;;;;;;;;103555;1291;544955;-74
2023/12/18 09:50:32;;;;;;;11.60;5.00;;;;;;;;;;103656;1292;545801;-76
2023/12/18 09:54:10;;;;;;;11.80;6.30;;;;;;;;;;103709;1292;545569;-69
2023/12/18 09:57:50;;;;;;;9.00;3.80;;;;;;;;;;103680;1293;545603;-69
2023/12/18 10:01:24;;;;;;;9.80;3.80;;;;;;;;;;103652;1289;545602;-71
2023/12/18 10:05:08;;;;;;;11.80;5.80;;;;;;;;;;103427;1295;544904;-69
2023/12/18 10:08:39;;;;;;;15.60;6.40;;;;;;;;;;103573;1291;545904;-68
2023/12/18 10:12:17;;;;;;;11.30;4.10;;;;;;;;;;103564;1292;545198;-78
2023/12/18 10:15:54;;;;;;;6.30;2.20;;;;;;;;;;103731;1289;545511;-74
2023/12/18 10:19:32;;;;;;;9.90;2.60;;;;;;;;;;103574;1288;544828;-72
2023/12/18 10:23:12;;;;;;;6.70;2.20;;;;;;;;;;103816;1289;544996;-75
2023/12/18 10:26:50;;;;;;;7.40;2.50;;;;;;;;;;103700;1290;544902;-69
2023/12/18 10:30:26;;;;;;;6.90;2.60;;;;;;;;;;103744;1291;545527;-68
2023/12/18 10:34:05;;;;;;;8.60;2.10;;;;;;;;;;103767;1289;545950;-77
2023/12/18 10:37:41;;;;;;;10.70;3.60;;;;;;;;;;103578;1289;545528;-68
2023/12/18 10:41:21;;;;;;;22.30;11.20;;;;;;;;;;103827;1288;544951;-70
2023/12/18 10:44:54;;;;;;;14.60;5.90;;;;;;;;;;103594;1294;544780;-71
2023/12/18 10:48:32;;;;;;;11.60;6.30;;;;;;;;;;103630;1292;545676;-71
2023/12/18 10:52:09;;;;;;;6.10;1.70;;;;;;;;;;103846;1288;545549;-78
2023/12/18 10:55:48;;;;;;;6.00;2.10;;;;;;;;;;103717;1289;545026;-73
2023/12/18 10:59:24;;;;;;;8.80;2.90;;;;;;;;;;103877;1291;544793;-73
2023/12/18 11:03:02;;;;;;;7.40;2.20;;;;;;;;;;103855;1289;545396;-77
2023/12/18 11:06:40;;;;;;;6.70;1.90;;;;;;;;;;103703;1294;544973;-78
2023/12/18 11:10:17;;;;;;;5.90;2.10;;;;;;;;;;103660;1292;545544;-68
2023/12/18 11:13:59;;;;;;;6.40;2.10;;;;;;;;;;104568;1283;544879;-71
2023/12/18 11:17:43;;;;;;;5.30;1.50;;;;;;;;;;103620;1302;544806;-74
2023/12/18 11:21:08;;;;;;;8.00;1.80;;;;;;;;;;103563;1297;544838;-71
2023/12/18 11:24:47;;;;;;;7.70;1.90;;;;;;;;;;103633;1289;546612;-78
2023/12/18 11:28:25;;;;;;;6.90;1.80;;;;;;;;;;103738;1292;544715;-68
2023/12/18 11:32:03;;;;;;;7.40;1.70;;;;;;;;;;103824;1289;545761;-73
2023/12/18 11:35:42;;;;;;;4.90;1.70;;;;;;;;;;103605;1291;545343;-72
2023/12/18 11:39:18;;;;;;;5.80;1.80;;;;;;;;;;103831;1293;544967;-68
2023/12/18 11:42:54;;;;;;;5.00;1.80;;;;;;;;;;103925;1289;545603;-68
2023/12/18 11:46:32;;;;;;;7.30;1.70;;;;;;;;;;103758;1288;546579;-71
2023/12/18 11:50:08;;;;;;;5.90;1.60;;;;;;;;;;103948;1289;544745;-70
2023/12/18 11:53:57;;;;;;;6.50;2.10;;;;;;;;;;103654;1290;546834;-69
2023/12/18 11:57:23;;;;;;;10.20;4.60;;;;;;;;;;103766;1289;544839;-75
2023/12/18 12:00:59;;;;;;;11.10;5.60;;;;;;;;;;103959;1300;545969;-69
2023/12/18 12:04:41;;;;;;;12.20;6.30;;;;;;;;;;103811;1289;544783;-76
2023/12/18 12:08:17;;;;;;;12.30;6.40;;;;;;;;;;103633;1292;545051;-67
2023/12/18 12:11:54;;;;;;;14.00;6.80;;;;;;;;;;103657;1295;545041;-79
2023/12/18 12:15:32;;;;;;;18.30;7.50;;;;;;;;;;103671;1289;545081;-78
2023/12/18 12:19:09;;;;;;;13.20;6.40;;;;;;;;;;103622;1292;545013;-73
2023/12/18 12:22:47;;;;;;;11.70;4.40;;;;;;;;;;103845;1294;544960;-76
2023/12/18 12:26:24;;;;;;;11.10;3.00;;;;;;;;;;104012;1288;544793;-67
2023/12/18 12:30:02;;;;;;;11.00;6.30;;;;;;;;;;103682;1289;545314;-75
2023/12/18 12:33:43;;;;;;;11.80;6.30;;;;;;;;;;103818;1289;545303;-77
2023/12/18 12:37:17;;;;;;;13.10;7.00;;;;;;;;;;103792;1289;544745;-73
2023/12/18 12:40:54;;;;;;;14.60;6.50;;;;;;;;;;103557;1291;545891;-67
2023/12/18 12:44:32;;;;;;;14.20;6.80;;;;;;;;;;103688;1295;544988;-74
2023/12/18 12:48:10;;;;;;;15.70;6.20;;;;;;;;;;103596;1291;544879;-68
2023/12/18 12:51:47;;;;;;;13.80;5.90;;;;;;;;;;103737;1289;544597;-78
2023/12/18 12:55:24;;;;;;;15.00;6.40;;;;;;;;;;103562;1294;544924;-68
2023/12/18 12:59:02;;;;;;;16.90;7.70;;;;;;;;;;103688;1291;546058;-72
2023/12/18 13:02:39;;;;;;;16.60;9.80;;;;;;;;;;103746;1289;545156;-74
2023/12/18 13:06:16;;;;;;;26.00;15.90;;;;;;;;;;103603;1295;544783;-68
2023/12/18 13:09:53;;;;;;;17.40;10.40;;;;;;;;;;103715;1289;546049;-67
2023/12/18 13:13:31;;;;;;;24.10;15.00;;;;;;;;;;103699;1289;544881;-67
2023/12/18 13:17:08;;;;;;;24.60;14.80;;;;;;;;;;103380;1292;545901;-70
2023/12/18 13:20:46;;;;;;;18.40;9.90;;;;;;;;;;103610;1290;544857;-77
2023/12/18 13:24:24;;;;;;;20.60;11.50;;;;;;;;;;103767;1289;545112;-72
2023/12/18 13:28:02;;;;;;;17.60;9.80;;;;;;;;;;103611;1289;545459;-74
2023/12/18 13:31:39;;;;;;;18.50;9.10;;;;;;;;;;103570;1291;545971;-73
2023/12/18 13:35:16;;;;;;;18.70;9.50;;;;;;;;;;103519;1296;544850;-68
2023/12/18 13:38:50;;;;;;;18.30;11.30;;;;;;;;;;103789;1289;544819;-69
2023/12/18 13:42:31;;;;;;;25.40;14.20;;;;;;;;;;103745;1289;545080;-68
2023/12/18 13:46:10;;;;;;;28.70;16.70;;;;;;;;;;103675;1295;545755;-68
2023/12/18 13:49:46;;;;;;;31.70;16.60;;;;;;;;;;103727;1288;545104;-69
2023/12/18 13:53:23;;;;;;;33.10;19.20;;;;;;;;;;103660;1292;545608;-68
2023/12/18 13:57:01;;;;;;;32.10;20.80;;;;;;;;;;104038;1292;544894;-70
2023/12/18 14:00:40;;;;;;;36.40;23.20;;;;;;;;;;103713;1289;545302;-76
2023/12/18 14:04:16;;;;;;;27.00;15.40;;;;;;;;;;103474;1290;544921;-68
2023/12/18 14:07:53;;;;;;;23.50;13.10;;;;;;;;;;103616;1289;544825;-67
2023/12/18 14:11:31;;;;;;;23.50;14.00;;;;;;;;;;103253;1292;544784;-67
2023/12/18 14:15:10;;;;;;;25.30;16.80;;;;;;;;;;103703;1288;545733;-67
2023/12/18 14:18:51;;;;;;;26.40;15.20;;;;;;;;;;103678;1295;544711;-66
2023/12/18 14:22:23;;;;;;;34.20;18.90;;;;;;;;;;103612;1289;544930;-66
2023/12/18 14:26:00;;;;;;;36.00;20.90;;;;;;;;;;103581;1291;544774;-67
2023/12/18 14:29:38;;;;;;;29.40;17.90;;;;;;;;;;103459;1291;544650;-67
2023/12/18 14:33:15;;;;;;;30.40;15.10;;;;;;;;;;103708;1289;544979;-68
2023/12/18 14:36:49;;;;;;;43.80;18.90;;;;;;;;;;103626;1292;544733;-69
2023/12/18 14:40:30;;;;;;;25.40;13.80;;;;;;;;;;103621;1291;544960;-67
2023/12/18 14:44:08;;;;;;;27.70;14.50;;;;;;;;;;104214;1285;544928;-73
2023/12/18 14:47:45;;;;;;;29.10;16.50;;;;;;;;;;103535;1294;544852;-66
2023/12/18 14:51:23;;;;;;;30.00;15.80;;;;;;;;;;103662;1288;545395;-67
2023/12/18 14:55:00;;;;;;;24.60;12.20;;;;;;;;;;103638;1292;545462;-70
2023/12/18 14:58:38;;;;;;;22.40;11.70;;;;;;;;;;103443;1295;545573;-67
2023/12/18 15:02:16;;;;;;;24.80;12.80;;;;;;;;;;103625;1291;544856;-66
2023/12/18 15:05:53;;;;;;;69.50;35.80;;;;;;;;;;103638;1291;545507;-74
2023/12/18 15:09:30;;;;;;;43.60;21.50;;;;;;;;;;103701;1289;545341;-68
2023/12/18 15:13:08;;;;;;;98.50;50.70;;;;;;;;;;103499;1292;545930;-72
2023/12/18 15:16:45;;;;;;;97.40;52.90;;;;;;;;;;103795;1292;545913;-73
2023/12/18 15:20:22;;;;;;;46.60;25.80;;;;;;;;;;103868;1289;545132;-67
2023/12/18 15:24:00;;;;;;;34.50;18.80;;;;;;;;;;103692;1290;544783;-66
2023/12/18 15:27:37;;;;;;;37.00;19.80;;;;;;;;;;103633;1289;544987;-74
2023/12/18 15:31:15;;;;;;;69.70;44.50;;;;;;;;;;103626;1295;545659;-68
2023/12/18 15:35:11;;;;;;;29.10;15.90;;;;;;;;;;103410;1294;545200;-69
2023/12/18 15:38:30;;;;;;;26.20;15.50;;;;;;;;;;103753;1294;544807;-70
2023/12/18 15:42:08;;;;;;;24.60;16.70;;;;;;;;;;103605;1289;544886;-75
2023/12/18 15:45:45;;;;;;;27.80;17.30;;;;;;;;;;103486;1291;545049;-67
2023/12/18 15:49:25;;;;;;;29.60;19.60;;;;;;;;;;103617;1292;545011;-67
2023/12/18 15:53:00;;;;;;;29.20;16.20;;;;;;;;;;103521;1293;545463;-69
2023/12/18 15:56:35;;;;;;;22.00;13.30;;;;;;;;;;103844;1296;544977;-67
2023/12/18 16:00:26;;;;;;;25.90;13.60;;;;;;;;;;103481;1295;545212;-69
2023/12/18 16:04:03;;;;;;;21.30;10.80;;;;;;;;;;103997;1286;544887;-69
2023/12/18 16:07:42;;;;;;;26.10;13.30;;;;;;;;;;103511;1291;545339;-67
2023/12/18 16:11:18;;;;;;;32.50;16.00;;;;;;;;;;103726;1293;544746;-71
2023/12/18 16:14:55;;;;;;;33.00;18.60;;;;;;;;;;103494;1292;545742;-69
2023/12/18 16:18:34;;;;;;;37.60;21.40;;;;;;;;;;103618;1292;544709;-76
2023/12/18 16:22:10;;;;;;;41.90;24.50;;;;;;;;;;103622;1289;545526;-68
2023/12/18 16:25:48;;;;;;;36.50;21.80;;;;;;;;;;104318;1285;544778;-70
2023/12/18 16:29:27;;;;;;;28.20;17.70;;;;;;;;;;103740;1302;544855;-70
2023/12/18 16:33:03;;;;;;;39.90;22.40;;;;;;;;;;103602;1293;544709;-67
2023/12/18 16:36:40;;;;;;;36.90;20.60;;;;;;;;;;103402;1291;545297;-67
2023/12/18 16:40:17;;;;;;;115.40;50.20;;;;;;;;;;103600;1291;545016;-66
2023/12/18 16:43:56;;;;;;;84.70;40.20;;;;;;;;;;103517;1298;545061;-67
2023/12/18 16:47:33;;;;;;;41.20;22.70;;;;;;;;;;103618;1289;546366;-74
2023/12/18 16:51:10;;;;;;;52.10;29.20;;;;;;;;;;103526;1295;545016;-72
2023/12/18 16:54:48;;;;;;;54.90;34.10;;;;;;;;;;103850;1288;545155;-68
2023/12/18 16:58:25;;;;;;;25.70;15.10;;;;;;;;;;103700;1289;544898;-67
2023/12/18 17:02:03;;;;;;;25.90;15.80;;;;;;;;;;103640;1295;544799;-71
2023/12/18 17:05:40;;;;;;;36.30;24.50;;;;;;;;;;103480;1292;544828;-67
2023/12/18 17:09:18;;;;;;;31.90;20.60;;;;;;;;;;103542;1291;545268;-69
2023/12/18 17:12:51;;;;;;;31.70;20.40;;;;;;;;;;103574;1289;544882;-77
2023/12/18 17:16:33;;;;;;;41.00;26.80;;;;;;;;;;103653;1288;544987;-68
2023/12/18 17:20:07;;;;;;;34.10;22.30;;;;;;;;;;103629;1293;544801;-67
2023/12/18 17:23:47;;;;;;;28.40;18.10;;;;;;;;;;103748;1289;544799;-68
2023/12/18 17:27:25;;;;;;;29.30;18.40;;;;;;;;;;103782;1289;544755;-67
2023/12/18 17:31:03;;;;;;;21.30;13.20;;;;;;;;;;103567;1291;544719;-74
2023/12/18 17:34:40;;;;;;;23.60;15.10;;;;;;;;;;103429;1292;544921;-67
2023/12/18 17:38:23;;;;;;;20.10;12.80;;;;;;;;;;105194;1290;545559;-75
2023/12/18 17:41:57;;;;;;;26.70;16.60;;;;;;;;;;103448;1295;545520;-71
2023/12/18 17:45:32;;;;;;;27.30;18.00;;;;;;;;;;103567;1291;544995;-67
2023/12/18 17:49:10;;;;;;;29.00;17.90;;;;;;;;;;103605;1291;545761;-67
2023/12/18 17:52:47;;;;;;;41.30;24.20;;;;;;;;;;103593;1295;545254;-67
2023/12/18 17:56:24;;;;;;;27.40;15.70;;;;;;;;;;103648;1292;545077;-68
2023/12/18 18:00:02;;;;;;;40.50;28.70;;;;;;;;;;103571;1290;545019;-74
2023/12/18 18:03:40;;;;;;;29.80;19.00;;;;;;;;;;103578;1292;544789;-71
2023/12/18 18:07:17;;;;;;;25.30;15.10;;;;;;;;;;103666;1292;544795;-76
2023/12/18 18:10:54;;;;;;;32.30;19.90;;;;;;;;;;103614;1289;545635;-75
2023/12/18 18:14:32;;;;;;;31.20;18.60;;;;;;;;;;103664;1289;545083;-74
2023/12/18 18:18:09;;;;;;;27.00;15.50;;;;;;;;;;103445;1291;544998;-67
2023/12/18 18:22:07;;;;;;;31.50;18.50;;;;;;;;;;103548;1294;545241;-67
2023/12/18 18:25:24;;;;;;;34.00;19.10;;;;;;;;;;103824;1288;544835;-68
2023/12/18 18:29:03;;;;;;;33.10;20.80;;;;;;;;;;103640;1289;544830;-67
2023/12/18 18:32:39;;;;;;;30.40;18.70;;;;;;;;;;103706;1289;545708;-67
2023/12/18 18:36:16;;;;;;;33.80;20.00;;;;;;;;;;103774;1290;545438;-75
2023/12/18 18:39:54;;;;;;;35.40;18.70;;;;;;;;;;103726;1289;544959;-67
2023/12/18 18:43:51;;;;;;;29.40;17.20;;;;;;;;;;103548;1289;545412;-73
2023/12/18 18:47:09;;;;;;;46.80;25.10;;;;;;;;;;103909;1292;545239;-76
2023/12/18 18:50:47;;;;;;;56.40;31.70;;;;;;;;;;103532;1294;544917;-67
2023/12/18 18:54:24;;;;;;;57.40;32.80;;;;;;;;;;103588;1295;544900;-68
2023/12/18 18:58:02;;;;;;;45.80;27.80;;;;;;;;;;103567;1295;546468;-68
2023/12/18 19:01:39;;;;;;;47.10;28.60;;;;;;;;;;103817;1288;545056;-69
2023/12/18 19:05:16;;;;;;;50.20;29.40;;;;;;;;;;103618;1303;544879;-69
2023/12/18 19:08:54;;;;;;;51.70;29.60;;;;;;;;;;104167;1283;544755;-67
2023/12/18 19:12:34;;;;;;;65.40;38.50;;;;;;;;;;103662;1293;544942;-69
2023/12/18 19:16:10;;;;;;;109.10;58.90;;;;;;;;;;103665;1294;544909;-74
2023/12/18 19:19:46;;;;;;;54.90;31.70;;;;;;;;;;103582;1289;545588;-76
2023/12/18 19:23:24;;;;;;;33.30;20.70;;;;;;;;;;103541;1292;545140;-71
2023/12/18 19:26:57;;;;;;;31.90;18.80;;;;;;;;;;103380;1295;545762;-73
2023/12/18 19:30:38;;;;;;;25.40;13.50;;;;;;;;;;103478;1289;545711;-70
2023/12/18 19:34:16;;;;;;;31.40;16.50;;;;;;;;;;103558;1292;544860;-77
2023/12/18 19:37:54;;;;;;;26.70;14.60;;;;;;;;;;103378;1292;545279;-69
2023/12/18 19:41:31;;;;;;;24.70;13.50;;;;;;;;;;103519;1292;544975;-69
2023/12/18 19:45:08;;;;;;;45.80;26.50;;;;;;;;;;103524;1305;544837;-74
2023/12/18 19:48:46;;;;;;;50.30;26.90;;;;;;;;;;103900;1288;544805;-71
2023/12/18 19:52:23;;;;;;;36.20;20.20;;;;;;;;;;103828;1290;545223;-75
2023/12/18 19:56:00;;;;;;;26.40;14.60;;;;;;;;;;103696;1293;545015;-71
2023/12/18 19:59:38;;;;;;;40.10;18.80;;;;;;;;;;103552;1292;544906;-74
2023/12/18 20:03:16;;;;;;;29.30;14.60;;;;;;;;;;103606;1291;544816;-67
2023/12/18 20:06:53;;;;;;;26.20;15.40;;;;;;;;;;103539;1295;545735;-68
2023/12/18 20:10:31;;;;;;;25.00;14.00;;;;;;;;;;103767;1289;544951;-67
2023/12/18 20:14:08;;;;;;;26.60;16.00;;;;;;;;;;103485;1292;544774;-72
2023/12/18 20:17:45;;;;;;;19.50;10.60;;;;;;;;;;103461;1295;546030;-70
2023/12/18 20:21:24;;;;;;;71.20;37.10;;;;;;;;;;103522;1289;545463;-70
2023/12/18 20:25:00;;;;;;;41.90;22.00;;;;;;;;;;103655;1288;544728;-68
2023/12/18 20:28:37;;;;;;;74.00;36.60;;;;;;;;;;103563;1295;545417;-70
2023/12/18 20:32:15;;;;;;;41.50;23.50;;;;;;;;;;104176;1285;544855;-72
2023/12/18 20:35:53;;;;;;;32.30;21.30;;;;;;;;;;103683;1290;546148;-68
2023/12/18 20:39:30;;;;;;;27.20;16.60;;;;;;;;;;103411;1294;544939;-68
2023/12/18 20:43:08;;;;;;;18.20;10.80;;;;;;;;;;103569;1296;545163;-68
2023/12/18 20:46:45;;;;;;;17.00;10.60;;;;;;;;;;103319;1291;545154;-74
2023/12/18 20:50:23;;;;;;;19.50;11.50;;;;;;;;;;103431;1298;545949;-69
2023/12/18 20:53:56;;;;;;;37.30;19.00;;;;;;;;;;103597;1298;544771;-72
2023/12/18 20:57:38;;;;;;;36.40;16.20;;;;;;;;;;103591;1295;544734;-67
2023/12/18 21:01:15;;;;;;;30.30;13.40;;;;;;;;;;103955;1289;544764;-68
2023/12/18 21:04:52;;;;;;;30.30;15.60;;;;;;;;;;103511;1291;545246;-71
2023/12/18 21:08:30;;;;;;;33.90;16.20;;;;;;;;;;103484;1295;544731;-69
2023/12/18 21:12:04;;;;;;;41.90;23.30;;;;;;;;;;103629;1292;545586;-69
2023/12/18 21:15:47;;;;;;;42.90;24.60;;;;;;;;;;103618;1289;544809;-69
2023/12/18 21:19:18;;;;;;;24.20;15.10;;;;;;;;;;103438;1298;544995;-73
2023/12/18 21:23:00;;;;;;;17.10;11.40;;;;;;;;;;103818;1289;545008;-67
2023/12/18 21:26:37;;;;;;;14.70;9.90;;;;;;;;;;103626;1291;544877;-67
2023/12/18 21:30:14;;;;;;;15.50;10.10;;;;;;;;;;103419;1298;545184;-71